Mayer, MN

10:58 AM CST on December 19, 2014 (GMT -0600)
Mayer, MN | Change Station
CLOSE
Current Station
Personal Weather Station
Location: Mayer, MN
Elevation: 977 ft
Nearby Weather Stations

Elev 977 ft 44.89 °N, 93.90 °W | Updated 1 second ago

Overcast
Overcast
27.0 °F
Feels Like 20 °F
N
6.9
Wind Variable Wind from North
Gusts 10.7 mph

Today
High -- | Low -- °F
--% Chance of Precip.
Yesterday
High -- | Low -- °F
Precip. -- in
7:49 AM 4:36 PM
Waning Crescent, 7% visible
Pressure 30.20 in
Visibility 5.0 miles
Clouds Overcast 800 ft
Windchill 20 °F
Dew Point 22 °F
Humidity 83%
Rainfall 0.00 in
Snow Depth Not available.
UV 0 out of 12
Pollen .10 out of 12
Air Quality Not available.
Flu Activity Not available.
METAR KGYL 191654Z AUTO 15005KT 5SM BR OVC008 M02/M03 A3020 RMK AO2 T10161026

More Conditions Fewer Conditions

Pressure 30.20 in
Visibility 5.0 miles
Clouds Overcast 800 ft
Windchill 20 °F
Dew Point 22 °F
Humidity 83%
Rainfall 0.00 in
Snow Depth Not available.
UV 0 out of 12
Pollen .10 out of 12
Air Quality Not available.
Flu Activity Not available.
METAR KGYL 191654Z AUTO 15005KT 5SM BR OVC008 M02/M03 A3020 RMK AO2 T10161026

More Conditions Fewer Conditions

10-Day Weather Forecast

Almanac

Astronomy

Dec. 19, 2014 Rise Set
Actual Time
Civil Twilight
Nautical Twilight
Astronomical Twilight
Moon
Length of Visible Light
Length of Day
Tomorrow will be .
, % of the Moon is Illuminated

Today's Extremes

State Highs State Lows

Community

WunderPhotos

Upload Photos

1,779,005 photos uploaded!

WunderBlogs® & News

Nearby

Air Quality

  Air Quality AQ Index Pollutant
Not available.

Snow Depth

Station Depth Elevation

Earthquake Activity

City Distance Mag. Time & Date
Minimum magnitude displayed is 2.5.

Coastal Water Temperatures

Place Temperature

Nearby Weather Stations